Airfield :







YOU CAN JOIN US ON...

 
LOGIN :

Register | Disclaimer

   EN    FR    IT 

 









Legend :    VFR   Marginal VFR   IFR   Intensive IFR   Very Intensive IFR
Visi :
Ceiling :
>= 8 km
>= 3000ft
5 to 8 km
1000 to 3000 ft
1500m to 5 km
500 to 1000 ft
800 to 1500m
200 to 500 ft
< 800m
< 200 ft
Symbols :   Thunderstorms  Fog  Heavy snow  Heavy precipitations  Wind > 20 kt







- Airport Elevation : 1808 ft
- IATA code : YWK


CYWK - Wabush

CURRENT METAR :
  • 161400Z 02013KT 12SM -SHRA SCT010 BKN016 BKN023 07/05 A3002 RMK SF3CU3SC1 SLP187

EXPIRED METARs :
  • 161351Z 04010G17KT 12SM -SHRA SCT010 BKN015 BKN023 07/05 A3002 RMK SF4CU2SC1 SLP187
  • 161300Z 03009KT 10SM -RA BKN010 BKN014 OVC025 06/05 A3002 RMK SF5SC2SC1 SLP185
  • 161207Z 02009G15KT 12SM -RA FEW009 OVC014 05/04 A3000 RMK SF2SC6 SLP181

TAF TAF CYWK
Valid from the 16 at 14:00 until the 17 at 02:00 UTC


161338Z 1614/1702 03008KT P6SM BKN015 OVC025
TEMPO 1614/1616 5SM -SHRA BR BKN008 OVC015
FM161600 04012KT P6SM SCT020 BKN030
TEMPO 1616/1702 BKN020 OVC030
BECMG 1700/1702 03005KT RMK NXT FCST BY 162000Z
No reported NOTAMs for that airfield.



MET'MAP, your aeronautical weather chart ! - Copyright ORBIFLY December 2007 - Disclaimer

ORBIFLY MET'MAP TEAM :

Programming & Development : Alexandra Zaïnal
Concept & Development : Baudouin d'Aumeries
Co-Development & Prog : Marc-Olivier Méhu
Technical & hardware support : Manuel Goepfert

Contact : metmap@orbifly.com




SOURCES & CREDITS :

   NOAA